Time;durP1;ratioP1;P1;durP2;ratioP2;P2;SDS_P1;SDS_P2;PMS_P1;PMS_P2;Temp;Humidity;BMP_temperature;BMP_pressure;BME280_temperature;BME280_humidity;BME280_pressure;Samples;Min_cycle;Max_cycle;Signal;HPM_P1;HPM_P2
2023/01/11 00:00:44;;;;;;;0.30;0.30;;;;;;;6.25;100.00;100879.59;2104409;28;20560;-59
2023/01/11 00:01:48;;;;;;;0.40;0.30;;;;;;;6.19;100.00;100872.16;2096426;28;20266;-59
2023/01/11 00:03:00;;;;;;;0.73;0.40;;;;;;;6.27;100.00;100876.47;2103784;28;20254;-59
2023/01/11 00:04:00;;;;;;;0.40;0.40;;;;;;;5.90;100.00;100818.38;2105959;28;20197;-59
2023/01/11 00:05:00;;;;;;;0.63;0.40;;;;;;;6.33;100.00;100889.44;2099063;28;20507;-59
2023/01/11 00:06:01;;;;;;;0.43;0.40;;;;;;;6.36;100.00;100877.59;2098108;28;20271;-59
2023/01/11 00:07:02;;;;;;;0.50;0.40;;;;;;;6.37;100.00;100879.22;2101285;28;20187;-59
2023/01/11 00:08:03;;;;;;;0.40;0.30;;;;;;;6.38;100.00;100882.72;2102389;28;20198;-59
2023/01/11 00:09:04;;;;;;;0.40;0.30;;;;;;;6.24;100.00;100869.00;2097317;28;20183;-59
2023/01/11 00:10:05;;;;;;;0.37;0.30;;;;;;;6.27;100.00;100880.00;2097419;28;20181;-59
2023/01/11 00:11:13;;;;;;;0.47;0.30;;;;;;;6.30;100.00;100881.94;2104445;28;20192;-59
2023/01/11 00:12:13;;;;;;;0.50;0.40;;;;;;;6.29;100.00;100885.09;2097506;28;20351;-59
2023/01/11 00:13:14;;;;;;;0.53;0.50;;;;;;;6.36;100.00;100890.59;2097015;28;20238;-59
2023/01/11 00:14:15;;;;;;;1.60;0.30;;;;;;;6.03;100.00;100834.06;2104521;28;20186;-59
2023/01/11 00:15:15;;;;;;;0.60;0.40;;;;;;;6.41;100.00;100887.44;2099310;28;20281;-59
2023/01/11 00:16:16;;;;;;;0.37;0.37;;;;;;;6.40;100.00;100886.66;2104227;28;20664;-59
2023/01/11 00:17:16;;;;;;;0.57;0.37;;;;;;;6.34;100.00;100895.69;2105461;28;20735;-59
2023/01/11 00:18:16;;;;;;;0.50;0.40;;;;;;;6.17;100.00;100867.06;2105343;28;20257;-59
2023/01/11 00:19:17;;;;;;;0.70;0.40;;;;;;;6.37;100.00;100903.19;2105518;28;20170;-59
2023/01/11 00:20:18;;;;;;;0.43;0.37;;;;;;;6.39;100.00;100903.56;2103975;28;20239;-58
2023/01/11 00:21:19;;;;;;;0.50;0.40;;;;;;;6.38;100.00;100908.28;2105102;28;20262;-58
2023/01/11 00:22:19;;;;;;;0.30;0.30;;;;;;;6.34;100.00;100912.22;2105601;28;20287;-59
2023/01/11 00:23:19;;;;;;;0.97;0.40;;;;;;;6.30;100.00;100900.47;2105233;28;20195;-58
2023/01/11 00:24:20;;;;;;;0.50;0.40;;;;;;;6.35;100.00;100914.59;2100238;28;20202;-59
2023/01/11 00:25:20;;;;;;;0.30;0.30;;;;;;;6.39;100.00;100920.88;2102072;28;20258;-59
2023/01/11 00:26:21;;;;;;;0.40;0.37;;;;;;;6.41;100.00;100917.72;2105438;28;20246;-59
2023/01/11 00:27:21;;;;;;;0.70;0.50;;;;;;;6.39;100.00;100920.06;2103704;28;20186;-59
2023/01/11 00:28:21;;;;;;;0.30;0.30;;;;;;;6.51;100.00;100925.19;2097624;28;20179;-58
2023/01/11 00:29:22;;;;;;;0.30;0.30;;;;;;;6.48;100.00;100918.50;2105076;28;20205;-59
2023/01/11 00:30:22;;;;;;;0.40;0.40;;;;;;;6.50;100.00;100921.63;2096766;28;20644;-59
2023/01/11 00:31:23;;;;;;;0.40;0.40;;;;;;;6.46;100.00;100933.84;2104182;28;20187;-59
2023/01/11 00:32:24;;;;;;;0.47;0.30;;;;;;;6.40;100.00;100938.19;2102705;28;20263;-59
2023/01/11 00:33:24;;;;;;;0.57;0.40;;;;;;;5.91;100.00;100852.94;2105235;28;20718;-59
2023/01/11 00:34:25;;;;;;;0.30;0.30;;;;;;;6.40;100.00;100944.47;2101393;28;20194;-59
2023/01/11 00:35:26;;;;;;;0.67;0.40;;;;;;;6.38;100.00;100943.28;2099273;28;20187;-59
2023/01/11 00:36:26;;;;;;;0.40;0.30;;;;;;;6.42;100.00;100946.81;2103881;28;20195;-59
2023/01/11 00:37:27;;;;;;;0.40;0.30;;;;;;;6.48;100.00;100951.53;2097615;28;20176;-59
2023/01/11 00:38:42;;;;;;;0.50;0.30;;;;;;;6.51;100.00;100950.72;2104413;28;20214;-59
2023/01/11 00:39:43;;;;;;;2.28;0.38;;;;;;;6.53;100.00;100953.09;2097303;28;20186;-59
2023/01/11 00:40:43;;;;;;;0.60;0.40;;;;;;;6.44;100.00;100948.00;2104594;28;20592;-59
2023/01/11 00:48:18;;;;;;;0.32;0.32;;;;;;;6.50;100.00;100971.19;2103236;28;20573;-59
2023/01/11 00:49:18;;;;;;;2.20;0.50;;;;;;;6.15;100.00;100909.91;2105248;28;20235;-59
2023/01/11 00:50:19;;;;;;;0.30;0.30;;;;;;;6.56;100.00;100977.84;2104483;28;20217;-59
2023/01/11 00:51:19;;;;;;;0.57;0.30;;;;;;;6.51;100.00;100983.75;2103979;28;20186;-59
2023/01/11 00:52:20;;;;;;;0.70;0.50;;;;;;;6.55;100.00;100984.53;2099419;28;20186;-58
2023/01/11 00:53:20;;;;;;;0.30;0.30;;;;;;;5.77;100.00;100867.47;2097175;28;20183;-59
2023/01/11 00:54:21;;;;;;;0.57;0.40;;;;;;;6.52;100.00;100990.06;2096814;28;20269;-59
2023/01/11 00:55:21;;;;;;;0.50;0.40;;;;;;;6.50;100.00;100992.41;2103837;28;20198;-59
2023/01/11 00:56:22;;;;;;;0.50;0.33;;;;;;;6.44;100.00;100994.00;2105056;28;20197;-59
2023/01/11 00:57:22;;;;;;;0.50;0.40;;;;;;;6.51;100.00;100992.03;2100767;28;20203;-59
2023/01/11 00:58:23;;;;;;;0.50;0.40;;;;;;;6.57;100.00;100997.94;2096637;28;20629;-58
2023/01/11 00:59:23;;;;;;;0.37;0.33;;;;;;;6.60;100.00;101003.41;2098935;28;20179;-59
2023/01/11 01:00:23;;;;;;;0.30;0.30;;;;;;;6.08;100.00;100907.94;2103788;28;20186;-59
2023/01/11 01:01:24;;;;;;;0.50;0.40;;;;;;;6.05;100.00;100897.72;2102556;28;20262;-59
2023/01/11 01:02:24;;;;;;;1.90;0.50;;;;;;;6.74;100.00;101008.91;2096680;28;20225;-59
2023/01/11 01:03:25;;;;;;;0.50;0.40;;;;;;;6.81;100.00;101006.13;2103443;28;20189;-59
2023/01/11 01:04:25;;;;;;;0.50;0.40;;;;;;;6.81;100.00;101019.91;2104993;28;20188;-59
2023/01/11 01:05:26;;;;;;;0.70;0.43;;;;;;;6.84;100.00;101012.81;2105495;28;20198;-59
2023/01/11 01:06:27;;;;;;;0.53;0.47;;;;;;;6.85;100.00;101012.41;2100595;28;20470;-59
2023/01/11 01:07:27;;;;;;;0.52;0.30;;;;;;;6.85;100.00;101017.13;2097062;28;20220;-59
2023/01/11 01:08:28;;;;;;;0.33;0.30;;;;;;;6.41;100.00;100948.00;2096479;28;20178;-59
2023/01/11 01:09:29;;;;;;;0.63;0.40;;;;;;;6.89;100.00;101015.97;2096810;28;20199;-59
2023/01/11 01:10:29;;;;;;;0.43;0.30;;;;;;;6.98;100.00;101018.28;2099896;28;20179;-59
2023/01/11 01:11:29;;;;;;;0.63;0.50;;;;;;;7.03;100.00;101021.41;2104948;28;20194;-59
2023/01/11 01:15:08;;;;;;;0.75;0.40;;;;;;;7.07;100.00;101032.44;2101147;28;20166;-59
2023/01/11 01:16:09;;;;;;;0.60;0.40;;;;;;;7.02;100.00;101022.59;2100414;28;20187;-59
2023/01/11 01:17:09;;;;;;;1.27;0.50;;;;;;;6.70;100.00;100975.06;2097898;28;20258;-59
2023/01/11 01:18:10;;;;;;;0.40;0.37;;;;;;;7.03;100.00;101031.66;2102373;28;20695;-59
2023/01/11 01:19:11;;;;;;;0.40;0.37;;;;;;;7.04;100.00;101034.03;2100989;28;20180;-59
2023/01/11 01:20:13;;;;;;;0.50;0.32;;;;;;;7.04;100.00;101027.72;2099499;28;20198;-59
2023/01/11 01:21:14;;;;;;;0.63;0.50;;;;;;;7.12;100.00;101030.03;2102219;28;20312;-59
2023/01/11 01:22:14;;;;;;;0.40;0.40;;;;;;;7.12;100.00;101040.28;2096832;28;20180;-59
2023/01/11 01:23:14;;;;;;;0.93;0.33;;;;;;;7.04;100.00;101039.53;2097273;28;20226;-59
2023/01/11 01:24:15;;;;;;;0.37;0.27;;;;;;;6.53;100.00;100970.41;2104543;28;20183;-59
2023/01/11 01:25:16;;;;;;;0.60;0.50;;;;;;;7.02;100.00;101046.63;2104907;28;20228;-58
2023/01/11 01:26:17;;;;;;;0.93;0.43;;;;;;;7.03;100.00;101043.44;2105146;28;20653;-59
2023/01/11 01:27:18;;;;;;;0.27;0.27;;;;;;;6.98;100.00;101041.09;2104999;28;20198;-59
2023/01/11 01:28:20;;;;;;;0.30;0.30;;;;;;;6.56;100.00;100972.34;2101355;28;20215;-59
2023/01/11 01:29:21;;;;;;;0.35;0.30;;;;;;;7.02;100.00;101038.34;2105061;28;20295;-59
2023/01/11 01:30:21;;;;;;;0.60;0.40;;;;;;;7.02;100.00;101041.88;2104460;28;20238;-59
2023/01/11 01:31:22;;;;;;;0.33;0.30;;;;;;;7.10;100.00;101046.19;2104914;28;20681;-59
2023/01/11 01:32:22;;;;;;;1.03;0.40;;;;;;;7.12;100.00;101052.09;2105583;28;20175;-59
2023/01/11 01:33:23;;;;;;;0.50;0.30;;;;;;;7.15;100.00;101056.81;2105062;28;20201;-59
2023/01/11 01:34:24;;;;;;;0.63;0.43;;;;;;;7.14;100.00;101058.00;2104868;28;20252;-59
2023/01/11 01:35:24;;;;;;;0.70;0.30;;;;;;;7.15;100.00;101053.25;2104721;28;20571;-59
2023/01/11 01:36:24;;;;;;;0.57;0.40;;;;;;;7.15;100.00;101065.09;2105013;28;20222;-59
2023/01/11 01:37:25;;;;;;;0.43;0.30;;;;;;;7.18;100.00;101055.22;2102082;28;20195;-59
2023/01/11 01:38:26;;;;;;;0.80;0.37;;;;;;;6.70;100.00;100990.81;2104687;28;20259;-58
2023/01/11 01:39:27;;;;;;;0.38;0.35;;;;;;;7.15;100.00;101061.53;2105322;28;20167;-59
2023/01/11 01:40:27;;;;;;;0.47;0.30;;;;;;;7.13;100.00;101064.69;2103888;28;20275;-59
2023/01/11 01:41:28;;;;;;;0.60;0.30;;;;;;;6.26;100.00;100922.44;2101115;28;20216;-59
2023/01/11 01:42:28;;;;;;;0.23;0.20;;;;;;;7.19;100.00;101065.88;2102757;28;20185;-59
2023/01/11 01:43:56;;;;;;;1.30;0.50;;;;;;;7.11;100.00;101064.31;2105106;28;20667;-59
2023/01/11 01:45:05;;;;;;;0.73;0.38;;;;;;;7.17;100.00;101076.50;2096450;28;20629;-59
2023/01/11 01:46:06;;;;;;;0.68;0.40;;;;;;;7.22;100.00;101069.78;2097605;28;20204;-59
2023/01/11 01:47:06;;;;;;;1.30;0.50;;;;;;;7.26;100.00;101071.34;2104556;28;20194;-59
2023/01/11 01:48:11;;;;;;;0.40;0.40;;;;;;;7.26;100.00;101073.31;2104357;28;20213;-59
2023/01/11 01:49:14;;;;;;;0.55;0.35;;;;;;;7.22;100.00;101067.81;2098752;28;20198;-59
2023/01/11 01:50:24;;;;;;;0.60;0.32;;;;;;;7.18;100.00;101061.50;2095878;28;20195;-59
2023/01/11 01:51:31;;;;;;;0.85;0.40;;;;;;;6.92;100.00;101042.69;2100682;28;20187;-59
2023/01/11 01:52:33;;;;;;;0.52;0.30;;;;;;;6.79;100.00;101010.47;2099727;28;20184;-59
2023/01/11 01:53:44;;;;;;;1.10;0.40;;;;;;;7.11;100.00;101063.50;2097012;28;20191;-59
2023/01/11 01:54:47;;;;;;;0.40;0.30;;;;;;;7.10;100.00;101068.25;2101701;28;20664;-59
2023/01/11 01:55:52;;;;;;;0.63;0.40;;;;;;;7.17;100.00;101065.47;2103243;28;20225;-59
2023/01/11 01:56:58;;;;;;;0.90;0.40;;;;;;;7.18;100.00;101061.50;2105060;28;20198;-58
2023/01/11 01:58:01;;;;;;;0.38;0.30;;;;;;;7.01;100.00;101039.53;2100996;28;20194;-59
2023/01/11 01:59:07;;;;;;;0.45;0.30;;;;;;;7.01;100.00;101045.03;2099155;28;20726;-59
2023/01/11 02:00:09;;;;;;;0.52;0.30;;;;;;;7.12;100.00;101070.63;2103662;28;20164;-60
2023/01/11 02:02:32;;;;;;;0.60;0.35;;;;;;;7.00;100.00;101054.47;2102278;28;20198;-59
2023/01/11 02:03:32;;;;;;;0.70;0.40;;;;;;;7.06;100.00;101067.47;2096811;28;20225;-59
2023/01/11 02:04:38;;;;;;;0.30;0.30;;;;;;;7.14;100.00;101079.25;2097043;28;20657;-59
2023/01/11 02:05:38;;;;;;;0.68;0.45;;;;;;;6.96;100.00;101037.97;2096480;28;20255;-59
2023/01/11 02:06:40;;;;;;;1.30;0.30;;;;;;;7.10;100.00;101061.94;2100394;28;20194;-59
2023/01/11 02:07:43;;;;;;;0.20;0.20;;;;;;;7.07;100.00;101062.75;2105248;28;20668;-59
2023/01/11 02:08:48;;;;;;;0.77;0.32;;;;;;;7.09;100.00;101057.63;2097409;28;20698;-59
2023/01/11 02:10:07;;;;;;;0.88;0.40;;;;;;;7.08;100.00;101061.56;2103075;28;20201;-58
2023/01/11 02:11:28;;;;;;;1.30;0.30;;;;;;;7.03;100.00;101059.22;2097212;28;20195;-59
2023/01/11 02:12:35;;;;;;;0.60;0.40;;;;;;;6.94;100.00;101045.06;2096726;28;20195;-59
2023/01/11 02:13:44;;;;;;;0.55;0.35;;;;;;;7.04;100.00;101063.53;2105088;28;20181;-58
2023/01/11 02:14:46;;;;;;;0.47;0.30;;;;;;;6.98;100.00;101071.41;2105687;28;20655;-58
2023/01/11 02:16:06;;;;;;;0.40;0.30;;;;;;;6.95;100.00;101080.47;2107124;28;20235;-58
2023/01/11 02:17:07;;;;;;;0.38;0.35;;;;;;;7.00;100.00;101096.63;2104568;28;20265;-58
2023/01/11 02:18:12;;;;;;;0.55;0.32;;;;;;;7.03;100.00;101081.25;2098072;28;20182;-58
2023/01/11 02:19:26;;;;;;;0.45;0.30;;;;;;;6.95;100.00;101083.25;2106359;28;20184;-58
2023/01/11 02:20:48;;;;;;;0.40;0.28;;;;;;;7.02;100.00;101091.47;2105937;28;20649;-58
2023/01/11 02:21:59;;;;;;;0.30;0.30;;;;;;;7.03;100.00;101090.28;2104891;28;20610;-59
2023/01/11 02:23:13;;;;;;;0.85;0.40;;;;;;;7.03;100.00;101101.31;2103785;28;20296;-58
2023/01/11 02:24:16;;;;;;;1.27;0.32;;;;;;;6.96;100.00;101098.59;2100695;28;20172;-58
2023/01/11 02:25:53;;;;;;;0.35;0.30;;;;;;;6.93;100.00;101104.09;2104520;28;20193;-58
2023/01/11 02:26:54;;;;;;;0.82;0.40;;;;;;;6.91;100.00;101121.03;2103424;28;20255;-58
2023/01/11 02:28:06;;;;;;;0.40;0.20;;;;;;;6.95;100.00;101123.78;2101533;28;20251;-58
2023/01/11 02:29:31;;;;;;;0.40;0.30;;;;;;;6.88;100.00;101130.06;2102383;28;20260;-58
2023/01/11 02:30:36;;;;;;;0.30;0.25;;;;;;;6.36;100.00;101055.75;2105494;28;20644;-58
2023/01/11 02:32:19;;;;;;;0.30;0.30;;;;;;;6.90;100.00;101136.00;2101661;28;20282;-58
2023/01/11 02:33:36;;;;;;;0.40;0.30;;;;;;;6.91;100.00;101134.81;2063990;28;20224;-59
2023/01/11 02:34:50;;;;;;;0.47;0.30;;;;;;;6.94;100.00;101135.97;2104971;28;20743;-58
2023/01/11 02:36:20;;;;;;;0.70;0.32;;;;;;;6.97;100.00;101135.19;2106048;28;20274;-58
2023/01/11 02:37:41;;;;;;;0.82;0.32;;;;;;;7.01;100.00;101133.19;2097243;28;20673;-59
2023/01/11 02:38:51;;;;;;;0.30;0.25;;;;;;;7.01;100.00;101133.19;2104640;28;20622;-58
2023/01/11 02:40:05;;;;;;;1.17;0.35;;;;;;;6.97;100.00;101127.72;2098375;28;20601;-58
2023/01/11 02:41:18;;;;;;;0.30;0.30;;;;;;;7.01;100.00;101124.94;2097454;28;20179;-58
2023/01/11 02:46:09;;;;;;;0.70;0.30;;;;;;;6.98;100.00;101118.25;2100624;28;21000;-58
2023/01/11 02:47:19;;;;;;;0.20;0.20;;;;;;;6.96;100.00;101117.88;2079880;28;20198;-59
2023/01/11 02:48:38;;;;;;;0.60;0.30;;;;;;;6.90;100.00;101111.19;2099228;28;20171;-58
2023/01/11 02:49:47;;;;;;;0.60;0.20;;;;;;;6.80;100.00;101120.25;2100373;28;20218;-58
2023/01/11 02:50:55;;;;;;;0.50;0.30;;;;;;;6.82;100.00;101117.88;2105284;28;20573;-58
2023/01/11 02:52:07;;;;;;;0.45;0.30;;;;;;;6.86;100.00;101126.13;2102736;28;20202;-58
2023/01/11 02:53:47;;;;;;;0.60;0.40;;;;;;;6.95;100.00;101123.78;2101561;28;20576;-58
2023/01/11 02:54:54;;;;;;;0.30;0.22;;;;;;;6.40;100.00;101035.28;2102640;28;20628;-59
2023/01/11 02:55:58;;;;;;;0.47;0.30;;;;;;;6.91;100.00;101112.75;2098714;28;20316;-58
2023/01/11 02:57:01;;;;;;;0.20;0.20;;;;;;;6.97;100.00;101121.44;2102229;28;20190;-58
2023/01/11 02:58:06;;;;;;;0.43;0.30;;;;;;;7.01;100.00;101117.47;2104534;28;20279;-58
2023/01/11 02:59:14;;;;;;;0.30;0.20;;;;;;;7.04;100.00;101118.66;2098774;28;20679;-59
2023/01/11 03:00:16;;;;;;;0.82;0.20;;;;;;;7.04;100.00;101124.97;2102408;28;20293;-58
2023/01/11 03:01:21;;;;;;;0.30;0.30;;;;;;;7.03;100.00;101126.13;2101384;28;20632;-58
2023/01/11 03:02:21;;;;;;;0.20;0.20;;;;;;;7.03;100.00;101130.84;2101224;28;20202;-58
2023/01/11 03:03:23;;;;;;;0.80;0.30;;;;;;;7.07;100.00;101131.66;2106228;28;20214;-58
2023/01/11 03:04:33;;;;;;;0.30;0.30;;;;;;;7.08;100.00;101130.47;2104183;28;20179;-58
2023/01/11 03:05:38;;;;;;;0.40;0.30;;;;;;;7.08;100.00;101125.72;2105573;28;20190;-58
2023/01/11 03:06:39;;;;;;;0.55;0.40;;;;;;;6.61;100.00;101049.03;2104768;28;20244;-58
2023/01/11 03:08:26;;;;;;;0.30;0.30;;;;;;;6.99;100.00;101132.81;2105489;28;20274;-58
2023/01/11 03:09:44;;;;;;;2.10;0.30;;;;;;;6.97;100.00;101135.97;2068683;28;20225;-58
2023/01/11 03:10:47;;;;;;;0.77;0.30;;;;;;;6.96;100.00;101136.38;2101251;28;20191;-59
2023/01/11 03:14:01;;;;;;;0.20;0.20;;;;;;;6.95;100.00;101154.88;2076548;28;20280;-58
2023/01/11 03:15:20;;;;;;;0.30;0.20;;;;;;;6.91;100.00;101156.03;2098507;28;20199;-58
2023/01/11 03:16:45;;;;;;;0.45;0.30;;;;;;;6.94;100.00;101150.56;2097570;28;20282;-59
2023/01/11 03:18:08;;;;;;;0.38;0.30;;;;;;;6.52;100.00;101087.19;2084748;28;20670;-58
2023/01/11 03:19:33;;;;;;;1.05;0.30;;;;;;;7.00;100.00;101150.94;2102727;28;20178;-58
2023/01/11 03:20:41;;;;;;;0.85;0.35;;;;;;;7.03;100.00;101150.91;2099439;28;20634;-58
2023/01/11 03:21:56;;;;;;;1.10;0.20;;;;;;;7.05;100.00;101156.84;2104660;28;20195;-59
2023/01/11 03:23:24;;;;;;;0.43;0.30;;;;;;;7.04;100.00;101158.03;2106146;28;20167;-58
2023/01/11 03:24:30;;;;;;;1.05;0.30;;;;;;;7.04;100.00;101159.97;2079774;28;20809;-58
2023/01/11 03:25:46;;;;;;;1.30;0.30;;;;;;;6.99;100.00;101149.34;2105158;28;20222;-58
2023/01/11 03:26:55;;;;;;;0.20;0.20;;;;;;;7.06;100.00;101163.91;2104815;28;20181;-58
2023/01/11 03:28:21;;;;;;;0.30;0.20;;;;;;;7.05;100.00;101161.56;2098154;28;20531;-58
2023/01/11 03:29:30;;;;;;;1.00;0.40;;;;;;;7.08;100.00;101169.03;2103832;28;20234;-59
2023/01/11 03:30:53;;;;;;;0.20;0.20;;;;;;;7.08;100.00;101171.78;2101834;28;20186;-58
2023/01/11 03:32:12;;;;;;;0.40;0.20;;;;;;;7.11;100.00;101171.00;2101044;28;20199;-58
2023/01/11 03:33:21;;;;;;;0.90;0.30;;;;;;;7.12;100.00;101176.09;2099331;28;20236;-58
2023/01/11 03:34:36;;;;;;;1.73;0.28;;;;;;;7.12;100.00;101172.59;2097546;28;20191;-58
2023/01/11 03:35:48;;;;;;;0.63;0.22;;;;;;;6.66;100.00;101100.19;2097661;28;20191;-58
2023/01/11 03:36:59;;;;;;;0.40;0.20;;;;;;;7.12;100.00;101186.38;2098086;28;20187;-59
2023/01/11 03:38:05;;;;;;;1.02;0.43;;;;;;;7.12;100.00;101189.13;2105679;28;20189;-59
2023/01/11 03:39:22;;;;;;;0.60;0.32;;;;;;;7.09;100.00;101185.19;2104956;28;20226;-58
2023/01/11 03:40:29;;;;;;;0.45;0.30;;;;;;;7.05;100.00;101183.59;2105081;28;20651;-59
2023/01/11 03:41:35;;;;;;;0.63;0.28;;;;;;;7.03;100.00;101183.22;2097692;28;20168;-58
2023/01/11 03:43:09;;;;;;;0.30;0.30;;;;;;;7.07;100.00;101190.28;2104449;28;20660;-59
2023/01/11 03:44:02;;;;;;;0.20;0.20;;;;;;;7.14;100.00;101195.81;2098154;28;20645;-59
2023/01/11 03:45:03;;;;;;;1.15;0.30;;;;;;;7.11;100.00;101196.59;2105289;28;20647;-58
2023/01/11 03:46:12;;;;;;;1.10;0.30;;;;;;;6.98;100.00;101184.38;2106207;28;20274;-58
2023/01/11 03:47:16;;;;;;;0.70;0.30;;;;;;;6.99;100.00;101196.19;2103808;28;20163;-58
2023/01/11 03:48:21;;;;;;;0.55;0.20;;;;;;;6.93;100.00;101195.78;2100832;28;20666;-58
2023/01/11 03:49:32;;;;;;;0.52;0.35;;;;;;;6.96;100.00;101195.03;2102997;28;20210;-58
2023/01/11 03:50:33;;;;;;;0.40;0.40;;;;;;;6.97;100.00;101202.09;2097119;28;20199;-58
2023/01/11 03:51:41;;;;;;;0.50;0.30;;;;;;;6.95;100.00;101190.69;2105000;28;20211;-58
2023/01/11 03:52:42;;;;;;;0.25;0.20;;;;;;;7.01;100.00;101204.84;2105707;28;20667;-58
2023/01/11 03:53:47;;;;;;;0.17;0.15;;;;;;;7.05;100.00;101205.66;2101724;28;20660;-58
2023/01/11 03:54:48;;;;;;;0.20;0.20;;;;;;;7.04;100.00;101204.88;2099184;28;20200;-58
2023/01/11 03:55:54;;;;;;;0.30;0.20;;;;;;;7.06;100.00;101209.97;2101777;28;20301;-58
2023/01/11 03:57:16;;;;;;;0.28;0.20;;;;;;;7.05;100.00;101205.66;2097093;28;20656;-58
2023/01/11 03:58:17;;;;;;;0.40;0.20;;;;;;;7.04;100.00;101207.63;2104624;28;20236;-59
2023/01/11 03:59:18;;;;;;;0.50;0.20;;;;;;;7.04;100.00;101206.84;2104231;28;20201;-58
2023/01/11 04:00:21;;;;;;;0.30;0.30;;;;;;;7.05;100.00;101211.94;2101345;28;20190;-58
2023/01/11 04:01:22;;;;;;;0.30;0.30;;;;;;;6.95;100.00;101196.22;2096957;28;20180;-59
2023/01/11 04:02:35;;;;;;;0.60;0.40;;;;;;;6.99;100.00;101216.28;2105390;28;20562;-58
2023/01/11 04:03:35;;;;;;;0.40;0.22;;;;;;;6.99;100.00;101216.28;2097835;28;20171;-58
2023/01/11 04:04:36;;;;;;;0.50;0.30;;;;;;;6.95;100.00;101220.22;2103070;28;20278;-59
2023/01/11 04:05:39;;;;;;;0.70;0.40;;;;;;;6.61;100.00;101164.72;2099546;28;20769;-58
2023/01/11 04:06:39;;;;;;;1.67;0.32;;;;;;;6.99;100.00;101227.31;2097262;28;20671;-58
2023/01/11 04:07:40;;;;;;;0.27;0.27;;;;;;;6.53;100.00;101154.09;2102718;28;20183;-58
2023/01/11 04:08:40;;;;;;;0.20;0.20;;;;;;;7.01;100.00;101227.69;2095563;28;20241;-58
2023/01/11 04:09:41;;;;;;;1.03;0.27;;;;;;;7.04;100.00;101220.59;2096395;28;20715;-58
2023/01/11 04:10:41;;;;;;;0.20;0.20;;;;;;;6.36;100.00;101132.84;2103318;28;20217;-58
2023/01/11 04:11:42;;;;;;;0.30;0.30;;;;;;;7.03;100.00;101230.84;2105231;28;20232;-58
2023/01/11 04:12:48;;;;;;;0.50;0.30;;;;;;;7.02;100.00;101231.25;2103868;28;20230;-58
2023/01/11 04:13:48;;;;;;;0.28;0.28;;;;;;;6.37;100.00;101131.66;2104004;28;20570;-58
2023/01/11 04:14:49;;;;;;;0.40;0.23;;;;;;;6.94;100.00;101233.22;2104733;28;20167;-58
2023/01/11 04:15:52;;;;;;;0.70;0.27;;;;;;;7.00;100.00;101233.59;2106059;28;20188;-58
2023/01/11 04:16:52;;;;;;;0.85;0.20;;;;;;;7.06;100.00;101245.78;2105289;28;20231;-58
2023/01/11 04:17:53;;;;;;;0.30;0.30;;;;;;;7.07;100.00;101244.63;2104683;28;20191;-58
2023/01/11 04:18:53;;;;;;;0.20;0.20;;;;;;;7.05;100.00;101241.47;2098350;28;20192;-59
2023/01/11 04:19:54;;;;;;;0.57;0.30;;;;;;;7.10;100.00;101238.31;2096740;28;20203;-58
2023/01/11 04:20:54;;;;;;;0.20;0.20;;;;;;;7.01;100.00;101243.44;2096494;28;20164;-59
2023/01/11 04:21:55;;;;;;;0.23;0.23;;;;;;;7.01;100.00;101265.47;2104950;28;20203;-59
2023/01/11 04:22:55;;;;;;;0.50;0.30;;;;;;;7.03;100.00;101252.88;2103641;28;20186;-59
2023/01/11 04:23:55;;;;;;;0.57;0.23;;;;;;;7.01;100.00;101240.69;2097975;28;20190;-58
2023/01/11 04:24:56;;;;;;;0.30;0.30;;;;;;;6.50;100.00;101165.88;2096767;28;20677;-59
2023/01/11 04:25:56;;;;;;;0.97;0.20;;;;;;;6.99;100.00;101240.28;2099553;28;20190;-58
2023/01/11 04:26:57;;;;;;;0.50;0.27;;;;;;;7.00;100.00;101248.16;2104383;28;20346;-58
2023/01/11 04:27:57;;;;;;;0.37;0.30;;;;;;;7.01;100.00;101258.00;2104744;28;20182;-59
2023/01/11 04:28:58;;;;;;;0.30;0.30;;;;;;;6.35;100.00;101151.31;2105054;28;20182;-58
2023/01/11 04:29:58;;;;;;;0.70;0.33;;;;;;;6.95;100.00;101242.25;2097768;28;20295;-58
2023/01/11 04:30:59;;;;;;;1.03;0.30;;;;;;;6.96;100.00;101244.63;2095798;28;20188;-58
2023/01/11 04:31:59;;;;;;;0.30;0.20;;;;;;;6.99;100.00;101254.06;2097257;28;20274;-59
2023/01/11 04:33:00;;;;;;;0.30;0.30;;;;;;;6.80;100.00;101229.66;2103399;28;20660;-59
2023/01/11 04:34:01;;;;;;;0.67;0.30;;;;;;;7.03;100.00;101260.38;2106005;28;20277;-58
2023/01/11 04:35:01;;;;;;;0.27;0.27;;;;;;;7.08;100.00;101271.00;2105207;28;20212;-58
2023/01/11 04:36:07;;;;;;;0.30;0.30;;;;;;;7.09;100.00;101267.88;2105756;28;20190;-58
2023/01/11 04:37:08;;;;;;;0.20;0.20;;;;;;;7.05;100.00;101272.59;2104899;28;20280;-59
2023/01/11 04:38:08;;;;;;;0.50;0.20;;;;;;;7.07;100.00;101266.69;2099753;28;20281;-59
2023/01/11 04:39:09;;;;;;;1.13;0.30;;;;;;;7.04;100.00;101268.25;2097133;28;20183;-59
2023/01/11 04:40:10;;;;;;;0.50;0.30;;;;;;;7.00;100.00;101266.66;2099273;28;20226;-58
2023/01/11 04:42:49;;;;;;;0.55;0.30;;;;;;;7.08;100.00;101273.78;2071207;28;20569;-58
2023/01/11 04:43:53;;;;;;;0.77;0.20;;;;;;;6.79;100.00;101214.31;2070454;28;20314;-59
2023/01/11 04:44:54;;;;;;;0.70;0.20;;;;;;;7.09;100.00;101262.34;2071400;28;20193;-59
2023/01/11 04:45:57;;;;;;;0.20;0.20;;;;;;;7.09;100.00;101276.13;2071047;28;20193;-59
2023/01/11 04:46:58;;;;;;;0.43;0.30;;;;;;;7.01;100.00;101243.44;2071229;28;20659;-58
2023/01/11 04:47:58;;;;;;;0.70;0.20;;;;;;;7.17;100.00;101265.91;2071567;28;20622;-59
2023/01/11 04:48:59;;;;;;;0.33;0.20;;;;;;;7.22;100.00;101265.50;2096910;28;20196;-59
2023/01/11 04:50:00;;;;;;;0.40;0.30;;;;;;;7.17;100.00;101269.44;2096842;28;20203;-58
2023/01/11 04:51:00;;;;;;;0.38;0.20;;;;;;;7.13;100.00;101259.59;2097253;28;20313;-58
2023/01/11 04:52:01;;;;;;;2.27;0.30;;;;;;;7.23;100.00;101262.34;2103311;28;20285;-58
2023/01/11 04:53:01;;;;;;;0.67;0.30;;;;;;;7.25;100.00;101256.44;2105177;28;20178;-58
2023/01/11 04:54:02;;;;;;;0.30;0.20;;;;;;;7.23;100.00;101261.56;2100350;28;20279;-59
2023/01/11 04:55:02;;;;;;;0.47;0.30;;;;;;;7.26;100.00;101258.00;2101099;28;20547;-59
2023/01/11 04:56:05;;;;;;;0.20;0.20;;;;;;;7.21;100.00;101250.13;2103405;28;20207;-58
2023/01/11 04:57:07;;;;;;;1.05;0.30;;;;;;;6.53;100.00;101154.09;2098317;28;20749;-58
2023/01/11 04:58:07;;;;;;;0.35;0.20;;;;;;;7.24;100.00;101252.91;2104584;28;20182;-58
2023/01/11 04:59:07;;;;;;;0.60;0.30;;;;;;;7.10;100.00;101232.81;2097672;28;20661;-59
2023/01/11 05:00:09;;;;;;;0.20;0.20;;;;;;;7.32;100.00;101265.50;2104628;28;20239;-61
2023/01/11 05:01:13;;;;;;;0.40;0.20;;;;;;;7.34;100.00;101262.34;2098779;28;20553;-60
2023/01/11 05:02:14;;;;;;;0.30;0.25;;;;;;;7.33;100.00;101269.81;2102707;28;20667;-59
2023/01/11 05:03:15;;;;;;;0.13;0.13;;;;;;;7.34;100.00;101279.66;2103930;28;20661;-60
2023/01/11 05:04:15;;;;;;;0.53;0.20;;;;;;;7.35;100.00;101275.75;2102809;28;20566;-59
2023/01/11 05:05:16;;;;;;;0.10;0.10;;;;;;;7.39;100.00;101287.53;2103285;28;20171;-59
2023/01/11 05:06:18;;;;;;;0.30;0.20;;;;;;;7.42;100.00;101285.97;2093668;28;20254;-58
2023/01/11 05:07:18;;;;;;;0.30;0.20;;;;;;;7.41;100.00;101285.19;2094732;28;20176;-68
2023/01/11 05:08:19;;;;;;;0.43;0.20;;;;;;;7.43;100.00;101287.56;2102451;28;20225;-59
2023/01/11 05:09:19;;;;;;;0.43;0.20;;;;;;;7.07;100.00;101222.59;2104277;28;20642;-60
2023/01/11 05:10:20;;;;;;;1.30;0.30;;;;;;;7.49;100.00;101291.50;2104162;28;20183;-60
2023/01/11 05:11:20;;;;;;;0.53;0.20;;;;;;;7.51;100.00;101292.66;2103373;28;20264;-59
2023/01/11 05:12:21;;;;;;;0.63;0.40;;;;;;;7.48;100.00;101292.69;2104320;28;20187;-63
2023/01/11 05:13:40;;;;;;;0.70;0.33;;;;;;;6.80;100.00;101185.56;2103952;28;20606;-60
2023/01/11 05:14:40;;;;;;;0.57;0.40;;;;;;;7.47;100.00;101300.16;2102461;28;20174;-60
2023/01/11 05:15:41;;;;;;;0.60;0.30;;;;;;;7.49;100.00;101289.50;2104118;28;20189;-60
2023/01/11 05:16:41;;;;;;;1.67;0.80;;;;;;;7.29;100.00;101273.78;2103359;28;20190;-60
2023/01/11 05:17:42;;;;;;;0.90;0.30;;;;;;;7.51;100.00;101303.69;2101230;28;20644;-59
2023/01/11 05:18:48;;;;;;;4.93;0.37;;;;;;;7.46;100.00;101290.31;2097212;28;20677;-60
2023/01/11 05:19:49;;;;;;;0.50;0.32;;;;;;;7.60;100.00;101297.78;2102635;28;20178;-60